createdAt,value
2022-12-20T00:00:05.953Z,993.58
2022-12-20T00:01:05.919Z,993.64
2022-12-20T00:02:06.105Z,993.58
2022-12-20T00:03:05.973Z,993.63
2022-12-20T00:04:06.072Z,993.60
2022-12-20T00:05:05.895Z,993.57
2022-12-20T00:06:05.892Z,993.49
2022-12-20T00:07:05.872Z,993.53
2022-12-20T00:08:05.862Z,993.45
2022-12-20T00:09:05.848Z,993.50
2022-12-20T00:10:05.826Z,993.57
2022-12-20T00:11:05.823Z,993.51
2022-12-20T00:12:05.804Z,993.56
2022-12-20T00:13:05.783Z,993.56
2022-12-20T00:14:05.808Z,993.58
2022-12-20T00:15:05.774Z,993.50
2022-12-20T00:16:05.760Z,993.49
2022-12-20T00:17:05.760Z,993.61
2022-12-20T00:18:05.796Z,993.52
2022-12-20T00:19:05.709Z,993.46
2022-12-20T00:20:05.740Z,993.44
2022-12-20T00:21:05.705Z,993.36
2022-12-20T00:22:05.689Z,993.49
2022-12-20T00:23:05.685Z,993.42
2022-12-20T00:24:05.668Z,993.35
2022-12-20T00:25:05.660Z,993.35
2022-12-20T00:26:05.647Z,993.40
2022-12-20T00:27:05.647Z,993.43
2022-12-20T00:28:05.620Z,993.40
2022-12-20T00:29:05.638Z,993.33
2022-12-20T00:30:05.598Z,993.36
2022-12-20T00:31:05.627Z,993.29
2022-12-20T00:32:05.679Z,993.31
2022-12-20T00:33:05.578Z,993.29
2022-12-20T00:34:05.559Z,993.31
2022-12-20T00:35:05.553Z,993.31
2022-12-20T00:36:05.540Z,993.28
2022-12-20T00:37:05.523Z,993.28
2022-12-20T00:38:05.530Z,993.28
2022-12-20T00:39:05.510Z,993.25
2022-12-20T00:40:05.497Z,993.23
2022-12-20T00:41:05.489Z,993.27
2022-12-20T00:42:05.489Z,993.13
2022-12-20T00:43:05.470Z,993.14
2022-12-20T00:44:05.484Z,993.18
2022-12-20T00:45:05.447Z,993.18
2022-12-20T00:46:05.431Z,993.15
2022-12-20T00:47:05.445Z,993.19
2022-12-20T00:48:05.430Z,993.20
2022-12-20T00:49:05.406Z,993.14
2022-12-20T00:50:05.401Z,993.22
2022-12-20T00:51:05.391Z,993.13
2022-12-20T00:52:05.580Z,993.12
2022-12-20T00:53:05.403Z,993.07
2022-12-20T00:54:05.345Z,993.08
2022-12-20T00:55:05.352Z,993.02
2022-12-20T00:56:05.335Z,993.04
2022-12-20T00:57:05.319Z,993.03
2022-12-20T00:58:05.307Z,993.04
2022-12-20T00:59:05.331Z,992.97
2022-12-20T01:00:05.283Z,992.97
2022-12-20T01:01:05.355Z,992.98
2022-12-20T01:02:05.403Z,992.95
2022-12-20T01:03:05.400Z,993.04
2022-12-20T01:04:05.257Z,993.09
2022-12-20T01:05:05.222Z,993.08
2022-12-20T01:06:05.232Z,993.09
2022-12-20T01:07:05.214Z,993.06
2022-12-20T01:08:05.194Z,993.03
2022-12-20T01:09:05.197Z,993.06
2022-12-20T01:10:05.193Z,993.02
2022-12-20T01:11:05.168Z,993.05
2022-12-20T01:12:05.152Z,993.02
2022-12-20T01:13:05.161Z,992.99
2022-12-20T01:14:05.149Z,992.99
2022-12-20T01:15:05.122Z,993.01
2022-12-20T01:16:05.173Z,992.94
2022-12-20T01:17:05.107Z,992.88
2022-12-20T01:18:05.086Z,992.89
2022-12-20T01:19:05.096Z,992.93
2022-12-20T01:20:05.081Z,992.87
2022-12-20T01:21:05.064Z,992.90
2022-12-20T01:22:05.063Z,992.94
2022-12-20T01:23:05.042Z,992.88
2022-12-20T01:24:05.057Z,993.00
2022-12-20T01:25:05.177Z,992.93
2022-12-20T01:26:05.075Z,992.92
2022-12-20T01:27:05.993Z,992.88
2022-12-20T01:28:04.982Z,992.87
2022-12-20T01:29:04.971Z,992.94
2022-12-20T01:30:04.975Z,992.94
2022-12-20T01:31:04.960Z,992.96
2022-12-20T01:32:04.984Z,992.91
2022-12-20T01:33:04.930Z,992.90
2022-12-20T01:34:04.916Z,992.91
2022-12-20T01:35:05.050Z,992.87
2022-12-20T01:36:04.898Z,992.83
2022-12-20T01:37:04.873Z,992.86
2022-12-20T01:38:04.891Z,992.90
2022-12-20T01:39:04.854Z,992.89
2022-12-20T01:40:04.905Z,992.79
2022-12-20T01:41:04.843Z,992.86
2022-12-20T01:42:04.832Z,992.86
2022-12-20T01:43:04.881Z,992.97
2022-12-20T01:44:04.830Z,992.91
2022-12-20T01:45:04.803Z,992.88
2022-12-20T01:46:04.888Z,992.89
2022-12-20T01:47:04.808Z,992.92
2022-12-20T01:48:04.782Z,992.95
2022-12-20T01:49:04.783Z,992.90
2022-12-20T01:50:04.787Z,992.92
2022-12-20T01:51:04.736Z,992.75
2022-12-20T01:52:04.752Z,992.76
2022-12-20T01:53:04.729Z,992.69
2022-12-20T01:54:04.722Z,992.61
2022-12-20T01:55:04.720Z,992.66
2022-12-20T01:56:04.694Z,992.76
2022-12-20T01:57:04.687Z,992.74
2022-12-20T01:58:04.666Z,992.76
2022-12-20T01:59:04.678Z,992.68
2022-12-20T02:00:04.689Z,992.63
2022-12-20T02:01:04.669Z,992.65
2022-12-20T02:02:04.827Z,992.66
2022-12-20T02:03:04.822Z,992.70
2022-12-20T02:04:04.629Z,992.73
2022-12-20T02:05:04.624Z,992.74
2022-12-20T02:06:04.587Z,992.72
2022-12-20T02:07:04.564Z,992.80
2022-12-20T02:08:04.579Z,992.74
2022-12-20T02:09:05.553Z,992.74
2022-12-20T02:10:04.544Z,992.79
2022-12-20T02:11:04.534Z,992.82
2022-12-20T02:12:04.523Z,992.87
2022-12-20T02:13:04.509Z,992.82
2022-12-20T02:14:04.511Z,992.73
2022-12-20T02:15:04.502Z,992.71
2022-12-20T02:16:04.481Z,992.73
2022-12-20T02:17:04.538Z,992.72
2022-12-20T02:18:04.455Z,992.74
2022-12-20T02:19:04.430Z,992.74
2022-12-20T02:20:04.453Z,992.73
2022-12-20T02:21:04.438Z,992.71
2022-12-20T02:22:04.407Z,992.70
2022-12-20T02:23:04.412Z,992.58
2022-12-20T02:24:04.395Z,992.63
2022-12-20T02:25:04.378Z,992.57
2022-12-20T02:26:04.368Z,992.58
2022-12-20T02:27:04.364Z,992.53
2022-12-20T02:28:04.364Z,992.53
2022-12-20T02:29:04.344Z,992.52
2022-12-20T02:30:04.324Z,992.48
2022-12-20T02:31:04.306Z,992.53
2022-12-20T02:32:04.335Z,992.47
2022-12-20T02:33:05.285Z,992.43
2022-12-20T02:34:04.299Z,992.46
2022-12-20T02:35:04.289Z,992.42
2022-12-20T02:36:04.244Z,992.48
2022-12-20T02:37:04.244Z,992.47
2022-12-20T02:38:04.245Z,992.54
2022-12-20T02:39:04.231Z,992.56
2022-12-20T02:40:04.204Z,992.53
2022-12-20T02:41:04.201Z,992.52
2022-12-20T02:42:04.216Z,992.45
2022-12-20T02:43:04.194Z,992.45
2022-12-20T02:44:04.195Z,992.39
2022-12-20T02:45:04.162Z,992.45
2022-12-20T02:46:04.263Z,992.46
2022-12-20T02:47:04.137Z,992.34
2022-12-20T02:48:04.132Z,992.29
2022-12-20T02:49:04.132Z,992.30
2022-12-20T02:50:04.109Z,992.27
2022-12-20T02:51:04.102Z,992.08
2022-12-20T02:52:04.095Z,992.12
2022-12-20T02:53:04.084Z,992.15
2022-12-20T02:54:04.060Z,992.24
2022-12-20T02:55:04.051Z,992.32
2022-12-20T02:56:04.046Z,992.30
2022-12-20T02:57:04.032Z,992.34
2022-12-20T02:58:04.040Z,992.28
2022-12-20T02:59:04.012Z,992.31
2022-12-20T03:00:04.003Z,992.21
2022-12-20T03:01:04.048Z,992.18
2022-12-20T03:02:04.151Z,992.12
2022-12-20T03:03:04.095Z,992.20
2022-12-20T03:04:03.971Z,992.20
2022-12-20T03:05:03.979Z,992.17
2022-12-20T03:06:03.966Z,992.20
2022-12-20T03:07:03.925Z,992.21
2022-12-20T03:08:03.914Z,992.29
2022-12-20T03:09:03.918Z,992.23
2022-12-20T03:10:03.902Z,992.25
2022-12-20T03:11:03.896Z,992.36
2022-12-20T03:12:03.888Z,992.25
2022-12-20T03:13:03.873Z,992.17
2022-12-20T03:14:03.867Z,992.18
2022-12-20T03:15:03.848Z,992.16
2022-12-20T03:16:03.814Z,992.08
2022-12-20T03:17:03.891Z,992.08
2022-12-20T03:18:03.797Z,992.09
2022-12-20T03:19:03.810Z,992.16
2022-12-20T03:20:03.784Z,992.17
2022-12-20T03:21:03.773Z,992.06
2022-12-20T03:22:03.770Z,992.01
2022-12-20T03:23:03.782Z,991.99
2022-12-20T03:24:03.751Z,992.01
2022-12-20T03:25:03.742Z,992.14
2022-12-20T03:26:03.757Z,992.04
2022-12-20T03:27:03.704Z,992.05
2022-12-20T03:28:03.698Z,992.03
2022-12-20T03:29:03.708Z,991.91
2022-12-20T03:30:03.714Z,991.94
2022-12-20T03:31:03.756Z,991.98
2022-12-20T03:32:03.673Z,992.01
2022-12-20T03:33:03.635Z,991.98
2022-12-20T03:34:03.645Z,992.07
2022-12-20T03:35:03.618Z,992.05
2022-12-20T03:36:03.616Z,992.05
2022-12-20T03:37:03.597Z,992.02
2022-12-20T03:38:03.609Z,992.01
2022-12-20T03:39:03.579Z,992.06
2022-12-20T03:40:03.554Z,992.15
2022-12-20T03:41:03.568Z,992.21
2022-12-20T03:42:03.570Z,992.13
2022-12-20T03:43:03.539Z,992.14
2022-12-20T03:44:03.584Z,992.17
2022-12-20T03:45:03.516Z,992.16
2022-12-20T03:46:03.547Z,992.24
2022-12-20T03:47:03.475Z,992.17
2022-12-20T03:48:04.498Z,992.09
2022-12-20T03:49:03.491Z,992.03
2022-12-20T03:50:03.454Z,991.99
2022-12-20T03:51:03.446Z,991.99
2022-12-20T03:52:03.453Z,991.98
2022-12-20T03:53:03.448Z,992.05
2022-12-20T03:54:03.426Z,992.10
2022-12-20T03:55:03.407Z,992.07
2022-12-20T03:56:03.410Z,992.08
2022-12-20T03:57:03.396Z,992.00
2022-12-20T03:58:03.392Z,991.98
2022-12-20T03:59:03.390Z,991.95
2022-12-20T04:00:03.366Z,991.94
2022-12-20T04:01:03.368Z,991.99
2022-12-20T04:02:03.456Z,992.06
2022-12-20T04:03:03.503Z,991.96
2022-12-20T04:04:03.409Z,992.05
2022-12-20T04:05:03.315Z,992.04
2022-12-20T04:06:26.411Z,992.07
2022-12-20T04:07:03.273Z,992.05
2022-12-20T04:08:03.273Z,992.16
2022-12-20T04:09:03.286Z,992.11
2022-12-20T04:10:03.304Z,992.07
2022-12-20T04:11:03.245Z,992.03
2022-12-20T04:12:03.214Z,991.97
2022-12-20T04:13:03.219Z,991.99
2022-12-20T04:14:03.212Z,992.02
2022-12-20T04:15:03.204Z,991.99
2022-12-20T04:16:03.276Z,992.01
2022-12-20T04:17:04.172Z,992.05
2022-12-20T04:18:03.170Z,992.09
2022-12-20T04:19:03.152Z,992.07
2022-12-20T04:20:03.156Z,992.12
2022-12-20T04:21:03.125Z,992.05
2022-12-20T04:22:06.123Z,992.01
2022-12-20T04:23:04.119Z,992.04
2022-12-20T04:24:03.118Z,991.95
2022-12-20T04:25:03.103Z,992.01
2022-12-20T04:26:03.051Z,992.01
2022-12-20T04:27:03.089Z,992.02
2022-12-20T04:28:03.061Z,992.00
2022-12-20T04:29:03.032Z,992.03
2022-12-20T04:30:03.058Z,992.08
2022-12-20T04:31:03.082Z,992.06
2022-12-20T04:32:02.990Z,992.04
2022-12-20T04:33:03.008Z,991.93
2022-12-20T04:34:03.009Z,991.94
2022-12-20T04:35:02.955Z,991.88
2022-12-20T04:36:02.998Z,991.93
2022-12-20T04:37:02.968Z,991.88
2022-12-20T04:38:02.920Z,991.88
2022-12-20T04:39:02.939Z,991.78
2022-12-20T04:40:02.971Z,991.80
2022-12-20T04:41:02.928Z,991.75
2022-12-20T04:42:02.879Z,991.77
2022-12-20T04:43:02.901Z,991.74
2022-12-20T04:44:02.888Z,991.77
2022-12-20T04:45:02.903Z,991.81
2022-12-20T04:46:02.881Z,991.77
2022-12-20T04:47:02.857Z,991.75
2022-12-20T04:48:28.505Z,991.72
2022-12-20T04:49:04.835Z,991.69
2022-12-20T04:50:02.801Z,991.67
2022-12-20T04:51:02.835Z,991.69
2022-12-20T04:52:02.781Z,991.67
2022-12-20T04:53:02.769Z,991.71
2022-12-20T04:54:02.786Z,991.75
2022-12-20T04:55:02.779Z,991.82
2022-12-20T04:56:02.755Z,991.78
2022-12-20T04:57:02.757Z,991.87
2022-12-20T04:58:07.474Z,991.77
2022-12-20T04:59:04.703Z,991.77
2022-12-20T05:00:02.754Z,991.69
2022-12-20T05:01:02.733Z,991.78
2022-12-20T05:02:02.786Z,991.79
2022-12-20T05:03:02.851Z,991.86
2022-12-20T05:04:02.777Z,991.84
2022-12-20T05:05:02.653Z,991.87
2022-12-20T05:06:02.651Z,991.74
2022-12-20T05:07:02.642Z,991.69
2022-12-20T05:08:02.598Z,991.63
2022-12-20T05:09:02.611Z,991.67
2022-12-20T05:10:02.624Z,991.63
2022-12-20T05:11:02.592Z,991.55
2022-12-20T05:12:02.561Z,991.63
2022-12-20T05:13:08.823Z,991.57
2022-12-20T05:14:04.568Z,991.69
2022-12-20T05:15:02.506Z,991.66
2022-12-20T05:16:02.647Z,991.69
2022-12-20T05:17:02.525Z,991.71
2022-12-20T05:18:02.486Z,991.65
2022-12-20T05:19:02.516Z,991.60
2022-12-20T05:20:02.502Z,991.67
2022-12-20T05:21:03.489Z,991.57
2022-12-20T05:22:02.469Z,991.53
2022-12-20T05:23:02.463Z,991.42
2022-12-20T05:24:02.436Z,991.47
2022-12-20T05:25:02.470Z,991.46
2022-12-20T05:26:02.440Z,991.37
2022-12-20T05:27:02.409Z,991.46
2022-12-20T05:28:02.434Z,991.38
2022-12-20T05:29:02.394Z,991.41
2022-12-20T05:30:02.409Z,991.29
2022-12-20T05:31:02.433Z,991.28
2022-12-20T05:32:02.438Z,991.24
2022-12-20T05:33:02.351Z,991.17
2022-12-20T05:34:02.337Z,991.19
2022-12-20T05:35:02.359Z,991.18
2022-12-20T05:36:02.332Z,991.14
2022-12-20T05:37:02.334Z,991.31
2022-12-20T05:38:02.303Z,991.29
2022-12-20T05:39:04.665Z,991.23
2022-12-20T05:40:03.263Z,991.35
2022-12-20T05:41:02.275Z,991.34
2022-12-20T05:42:02.284Z,991.25
2022-12-20T05:43:02.257Z,991.31
2022-12-20T05:44:02.226Z,991.34
2022-12-20T05:45:02.221Z,991.32
2022-12-20T05:46:02.229Z,991.37
2022-12-20T05:47:02.257Z,991.30
2022-12-20T05:48:02.174Z,991.33
2022-12-20T05:49:02.177Z,991.27
2022-12-20T05:50:02.220Z,991.19
2022-12-20T05:51:02.185Z,991.18
2022-12-20T05:52:02.151Z,991.27
2022-12-20T05:53:07.428Z,991.26
2022-12-20T05:54:04.130Z,991.26
2022-12-20T05:55:02.097Z,991.18
2022-12-20T05:56:02.119Z,991.24
2022-12-20T05:57:02.119Z,991.14
2022-12-20T05:58:02.064Z,991.18
2022-12-20T05:59:02.075Z,991.20
2022-12-20T06:00:02.076Z,991.17
2022-12-20T06:01:02.051Z,991.25
2022-12-20T06:02:02.093Z,991.28
2022-12-20T06:03:02.205Z,991.34
2022-12-20T06:04:02.076Z,991.28
2022-12-20T06:05:03.010Z,991.30
2022-12-20T06:06:02.032Z,991.29
2022-12-20T06:07:01.982Z,991.30
2022-12-20T06:08:01.983Z,991.22
2022-12-20T06:09:01.946Z,991.17
2022-12-20T06:10:01.949Z,991.19
2022-12-20T06:11:01.966Z,991.22
2022-12-20T06:12:01.948Z,991.20
2022-12-20T06:13:01.924Z,991.18
2022-12-20T06:14:01.898Z,991.27
2022-12-20T06:15:01.912Z,991.23
2022-12-20T06:16:01.935Z,991.23
2022-12-20T06:17:01.895Z,991.23
2022-12-20T06:18:01.850Z,991.28
2022-12-20T06:19:01.861Z,991.25
2022-12-20T06:20:01.885Z,991.26
2022-12-20T06:21:01.867Z,991.26
2022-12-20T06:22:01.817Z,991.25
2022-12-20T06:23:01.808Z,991.21
2022-12-20T06:24:01.808Z,991.27
2022-12-20T06:25:01.775Z,991.27
2022-12-20T06:26:01.777Z,991.20
2022-12-20T06:27:01.797Z,991.15
2022-12-20T06:28:01.734Z,991.14
2022-12-20T06:29:01.746Z,991.07
2022-12-20T06:30:01.763Z,991.10
2022-12-20T06:31:01.739Z,991.18
2022-12-20T06:32:01.799Z,991.25
2022-12-20T06:33:01.687Z,991.26
2022-12-20T06:34:01.717Z,991.30
2022-12-20T06:35:01.658Z,991.31
2022-12-20T06:36:01.674Z,991.33
2022-12-20T06:37:01.679Z,991.39
2022-12-20T06:38:01.650Z,991.46
2022-12-20T06:39:06.120Z,991.47
2022-12-20T06:40:03.690Z,991.53
2022-12-20T06:41:01.634Z,991.49
2022-12-20T06:42:01.594Z,991.46
2022-12-20T06:43:01.619Z,991.40
2022-12-20T06:44:01.558Z,991.45
2022-12-20T06:45:01.618Z,991.42
2022-12-20T06:46:01.616Z,991.37
2022-12-20T06:47:01.545Z,991.43
2022-12-20T06:48:01.528Z,991.46
2022-12-20T06:49:01.528Z,991.48
2022-12-20T06:50:01.565Z,991.52
2022-12-20T06:51:01.533Z,991.51
2022-12-20T06:52:01.474Z,991.48
2022-12-20T06:53:01.536Z,991.44
2022-12-20T06:54:01.522Z,991.37
2022-12-20T06:55:01.458Z,991.43
2022-12-20T06:56:01.443Z,991.42
2022-12-20T06:57:01.434Z,991.42
2022-12-20T06:58:01.466Z,991.35
2022-12-20T06:59:01.398Z,991.37
2022-12-20T07:00:01.467Z,991.37
2022-12-20T07:01:01.460Z,991.37
2022-12-20T07:02:02.596Z,991.35
2022-12-20T07:03:01.486Z,991.35
2022-12-20T07:04:01.368Z,991.32
2022-12-20T07:05:01.371Z,991.30
2022-12-20T07:06:01.323Z,991.33
2022-12-20T07:07:01.362Z,991.36
2022-12-20T07:08:01.319Z,991.30
2022-12-20T07:09:01.306Z,991.31
2022-12-20T07:10:01.322Z,991.34
2022-12-20T07:11:01.282Z,991.32
2022-12-20T07:12:33.261Z,991.35
2022-12-20T07:13:01.297Z,991.35
2022-12-20T07:14:01.284Z,991.30
2022-12-20T07:15:01.267Z,991.28
2022-12-20T07:16:01.387Z,991.29
2022-12-20T07:17:01.336Z,991.30
2022-12-20T07:18:01.240Z,991.25
2022-12-20T07:19:01.234Z,991.21
2022-12-20T07:20:01.195Z,991.25
2022-12-20T07:21:01.257Z,991.29
2022-12-20T07:22:01.171Z,991.29
2022-12-20T07:23:01.158Z,991.28
2022-12-20T07:24:01.144Z,991.24
2022-12-20T07:25:01.196Z,991.28
2022-12-20T07:26:01.116Z,991.31
2022-12-20T07:27:01.126Z,991.27
2022-12-20T07:28:01.152Z,991.37
2022-12-20T07:29:01.082Z,991.33
2022-12-20T07:30:01.119Z,991.32
2022-12-20T07:31:01.105Z,991.48
2022-12-20T07:32:01.194Z,991.40
2022-12-20T07:33:01.069Z,991.36
2022-12-20T07:34:01.033Z,991.38
2022-12-20T07:35:01.039Z,991.23
2022-12-20T07:36:01.044Z,991.16
2022-12-20T07:37:00.985Z,991.26
2022-12-20T07:38:01.989Z,991.28
2022-12-20T07:39:00.989Z,991.26
2022-12-20T07:40:00.991Z,991.22
2022-12-20T07:41:00.961Z,991.26
2022-12-20T07:42:01.200Z,991.19
2022-12-20T07:43:00.979Z,991.22
2022-12-20T07:44:00.946Z,991.21
2022-12-20T07:45:00.932Z,991.10
2022-12-20T07:46:01.007Z,991.16
2022-12-20T07:47:00.881Z,991.11
2022-12-20T07:48:09.167Z,991.02
2022-12-20T07:49:02.864Z,990.99
2022-12-20T07:50:00.863Z,991.06
2022-12-20T07:51:00.924Z,990.99
2022-12-20T07:52:00.871Z,990.94
2022-12-20T07:53:00.842Z,990.95
2022-12-20T07:54:00.847Z,990.93
2022-12-20T07:55:00.815Z,990.95
2022-12-20T07:56:01.810Z,990.99
2022-12-20T07:57:00.797Z,990.94
2022-12-20T07:58:00.820Z,990.97
2022-12-20T07:59:00.749Z,990.90
2022-12-20T08:00:00.773Z,990.88
2022-12-20T08:01:00.824Z,990.93
2022-12-20T08:02:05.019Z,990.93
2022-12-20T08:03:01.954Z,990.99
2022-12-20T08:04:00.834Z,990.88
2022-12-20T08:05:00.694Z,990.94
2022-12-20T08:06:00.711Z,990.87
2022-12-20T08:07:00.686Z,990.89
2022-12-20T08:08:01.677Z,990.90
2022-12-20T08:09:00.677Z,990.93
2022-12-20T08:10:00.649Z,990.96
2022-12-20T08:11:00.644Z,990.97
2022-12-20T08:12:00.637Z,990.96
2022-12-20T08:13:00.626Z,990.92
2022-12-20T08:14:00.607Z,990.91
2022-12-20T08:15:00.610Z,990.89
2022-12-20T08:16:00.588Z,990.85
2022-12-20T08:17:00.659Z,990.92
2022-12-20T08:18:00.540Z,990.92
2022-12-20T08:19:01.543Z,990.92
2022-12-20T08:20:00.662Z,990.84
2022-12-20T08:21:01.544Z,990.90
2022-12-20T08:22:00.518Z,990.82
2022-12-20T08:23:00.522Z,990.86
2022-12-20T08:24:00.509Z,990.80
2022-12-20T08:25:00.477Z,990.84
2022-12-20T08:26:00.487Z,990.85
2022-12-20T08:27:00.459Z,990.84
2022-12-20T08:28:00.449Z,990.78
2022-12-20T08:29:00.447Z,990.76
2022-12-20T08:30:00.445Z,990.77
2022-12-20T08:31:00.434Z,990.73
2022-12-20T08:32:00.391Z,990.72
2022-12-20T08:33:00.400Z,990.73
2022-12-20T08:34:00.374Z,990.72
2022-12-20T08:35:00.370Z,990.65
2022-12-20T08:36:00.398Z,990.62
2022-12-20T08:37:00.359Z,990.57
2022-12-20T08:38:00.337Z,990.55
2022-12-20T08:39:00.356Z,990.56
2022-12-20T08:40:00.312Z,990.49
2022-12-20T08:41:00.312Z,990.50
2022-12-20T08:42:00.299Z,990.51
2022-12-20T08:43:03.742Z,990.46
2022-12-20T08:44:02.285Z,990.49
2022-12-20T08:45:00.251Z,990.47
2022-12-20T08:46:00.324Z,990.44
2022-12-20T08:47:00.280Z,990.46
2022-12-20T08:48:00.235Z,990.44
2022-12-20T08:49:00.217Z,990.36
2022-12-20T08:50:00.209Z,990.34
2022-12-20T08:51:00.270Z,990.31
2022-12-20T08:52:00.204Z,990.34
2022-12-20T08:53:00.187Z,990.29
2022-12-20T08:54:00.167Z,990.32
2022-12-20T08:55:01.699Z,990.35
2022-12-20T08:56:01.161Z,990.39
2022-12-20T08:57:00.158Z,990.35
2022-12-20T08:58:00.115Z,990.33
2022-12-20T08:59:00.121Z,990.35
2022-12-20T09:00:00.149Z,990.36
2022-12-20T09:01:04.539Z,990.36
2022-12-20T09:02:02.196Z,990.37
2022-12-20T09:03:00.357Z,990.38
2022-12-20T09:04:00.138Z,990.39
2022-12-20T09:05:00.042Z,990.35
2022-12-20T09:06:00.017Z,990.31
2022-12-20T09:07:00.020Z,990.36
2022-12-20T09:08:00.013Z,990.26
2022-12-20T09:08:59.994Z,990.21
2022-12-20T09:10:00.014Z,990.23
2022-12-20T09:10:59.970Z,990.32
2022-12-20T09:11:59.994Z,990.38
2022-12-20T09:12:59.973Z,990.36
2022-12-20T09:13:59.968Z,990.28
2022-12-20T09:14:59.931Z,990.35
2022-12-20T09:15:59.990Z,990.38
2022-12-20T09:16:59.943Z,990.32
2022-12-20T09:17:59.903Z,990.41
2022-12-20T09:19:05.185Z,990.35
2022-12-20T09:20:01.918Z,990.30
2022-12-20T09:20:59.864Z,990.36
2022-12-20T09:21:59.854Z,990.36
2022-12-20T09:22:59.860Z,990.40
2022-12-20T09:23:59.880Z,990.42
2022-12-20T09:24:59.842Z,990.43
2022-12-20T09:25:59.819Z,990.37
2022-12-20T09:26:59.819Z,990.43
2022-12-20T09:27:59.789Z,990.40
2022-12-20T09:28:59.799Z,990.45
2022-12-20T09:29:59.784Z,990.47
2022-12-20T09:30:59.776Z,990.32
2022-12-20T09:31:59.804Z,990.38
2022-12-20T09:33:10.208Z,990.36
2022-12-20T09:34:00.746Z,990.33
2022-12-20T09:34:59.719Z,990.33
2022-12-20T09:35:59.761Z,990.40
2022-12-20T09:36:59.704Z,990.26
2022-12-20T09:37:59.674Z,990.23
2022-12-20T09:38:59.711Z,990.14
2022-12-20T09:39:59.789Z,990.15
2022-12-20T09:40:59.656Z,990.20
2022-12-20T09:41:59.642Z,990.23
2022-12-20T09:42:59.644Z,990.20
2022-12-20T09:43:59.623Z,990.13
2022-12-20T09:44:59.661Z,990.14
2022-12-20T09:45:59.717Z,990.10
2022-12-20T09:47:03.531Z,990.14
2022-12-20T09:48:00.597Z,990.18
2022-12-20T09:48:59.580Z,990.13
2022-12-20T09:49:59.568Z,990.04
2022-12-20T09:50:59.562Z,990.00
2022-12-20T09:51:59.537Z,989.99
2022-12-20T09:52:59.518Z,990.06
2022-12-20T09:53:59.539Z,990.07
2022-12-20T09:54:59.518Z,990.08
2022-12-20T09:55:59.494Z,990.04
2022-12-20T09:56:59.506Z,990.18
2022-12-20T09:57:59.485Z,990.18
2022-12-20T09:58:59.576Z,990.16
2022-12-20T09:59:59.471Z,990.14
2022-12-20T10:00:59.445Z,990.24
2022-12-20T10:02:19.251Z,990.19
2022-12-20T10:03:09.398Z,990.15
2022-12-20T10:04:01.654Z,990.10
2022-12-20T10:04:59.589Z,990.04
2022-12-20T10:05:59.630Z,990.07
2022-12-20T10:06:59.480Z,990.08
2022-12-20T10:07:59.374Z,990.08
2022-12-20T10:08:59.358Z,990.11
2022-12-20T10:09:59.475Z,990.18
2022-12-20T10:10:59.384Z,990.20
2022-12-20T10:11:59.389Z,990.09
2022-12-20T10:12:59.325Z,990.04
2022-12-20T10:13:59.302Z,990.05
2022-12-20T10:14:59.294Z,989.97
2022-12-20T10:15:59.379Z,990.01
2022-12-20T10:16:59.311Z,989.94
2022-12-20T10:17:59.254Z,989.92
2022-12-20T10:18:59.263Z,989.92
2022-12-20T10:19:59.287Z,989.94
2022-12-20T10:20:59.295Z,989.90
2022-12-20T10:21:59.246Z,989.90
2022-12-20T10:22:59.239Z,989.89
2022-12-20T10:23:59.215Z,989.86
2022-12-20T10:24:59.187Z,989.88
2022-12-20T10:25:59.196Z,989.78
2022-12-20T10:26:59.180Z,989.80
2022-12-20T10:27:59.151Z,989.74
2022-12-20T10:28:59.202Z,989.74
2022-12-20T10:29:59.126Z,989.69
2022-12-20T10:30:59.169Z,989.74
2022-12-20T10:31:59.169Z,989.73
2022-12-20T10:32:59.165Z,989.70
2022-12-20T10:33:59.081Z,989.65
2022-12-20T10:34:59.122Z,989.62
2022-12-20T10:35:59.085Z,989.56
2022-12-20T10:36:59.101Z,989.59
2022-12-20T10:38:07.879Z,989.54
2022-12-20T10:39:01.062Z,989.58
2022-12-20T10:40:05.102Z,989.58
2022-12-20T10:41:20.711Z,989.59
2022-12-20T10:42:01.007Z,989.54
2022-12-20T10:42:59.050Z,989.51
2022-12-20T10:43:58.977Z,989.48
2022-12-20T10:44:58.987Z,989.47
2022-12-20T10:45:58.979Z,989.47
2022-12-20T10:46:59.004Z,989.49
2022-12-20T10:47:58.964Z,989.44
2022-12-20T10:48:58.952Z,989.48
2022-12-20T10:49:58.948Z,989.42
2022-12-20T10:50:58.903Z,989.37
2022-12-20T10:51:58.914Z,989.42
2022-12-20T10:52:58.904Z,989.40
2022-12-20T10:53:58.891Z,989.38
2022-12-20T10:54:58.867Z,989.41
2022-12-20T10:55:58.882Z,989.37
2022-12-20T10:56:58.900Z,989.34
2022-12-20T10:57:59.047Z,989.26
2022-12-20T10:58:58.823Z,989.21
2022-12-20T10:59:58.832Z,989.20
2022-12-20T11:00:58.801Z,989.25
2022-12-20T11:01:58.838Z,989.22
2022-12-20T11:02:58.974Z,989.22
2022-12-20T11:03:58.824Z,989.14
2022-12-20T11:04:58.785Z,989.20
2022-12-20T11:05:58.788Z,989.16
2022-12-20T11:06:58.759Z,989.25
2022-12-20T11:09:01.228Z,989.16
2022-12-20T11:09:59.741Z,989.18
2022-12-20T11:10:58.718Z,989.19
2022-12-20T11:11:58.700Z,989.17
2022-12-20T11:12:58.690Z,989.08
2022-12-20T11:13:58.691Z,989.02
2022-12-20T11:14:58.683Z,989.07
2022-12-20T11:15:58.701Z,989.08
2022-12-20T11:16:58.664Z,989.15
2022-12-20T11:17:58.621Z,989.17
2022-12-20T11:18:58.611Z,989.12
2022-12-20T11:19:58.663Z,989.11
2022-12-20T11:20:58.601Z,989.01
2022-12-20T11:21:58.587Z,989.14
2022-12-20T11:22:58.603Z,989.04
2022-12-20T11:23:58.569Z,989.03
2022-12-20T11:24:58.560Z,989.06
2022-12-20T11:25:58.549Z,989.06
2022-12-20T11:26:58.567Z,989.02
2022-12-20T11:27:58.534Z,989.09
2022-12-20T11:28:58.543Z,989.12
2022-12-20T11:29:58.531Z,989.18
2022-12-20T11:30:58.533Z,989.12
2022-12-20T11:31:58.598Z,989.14
2022-12-20T11:32:58.477Z,989.13
2022-12-20T11:33:58.500Z,989.04
2022-12-20T11:34:58.486Z,989.09
2022-12-20T11:35:58.464Z,989.04
2022-12-20T11:36:58.438Z,988.95
2022-12-20T11:38:02.629Z,988.89
2022-12-20T11:38:59.423Z,988.88
2022-12-20T11:39:58.409Z,988.83
2022-12-20T11:40:58.422Z,988.89
2022-12-20T11:41:58.380Z,988.75
2022-12-20T11:42:58.377Z,988.75
2022-12-20T11:44:26.974Z,988.76
2022-12-20T11:45:08.400Z,988.77
2022-12-20T11:46:00.369Z,988.75
2022-12-20T11:46:58.352Z,988.58
2022-12-20T11:47:58.335Z,988.74
2022-12-20T11:48:58.333Z,988.72
2022-12-20T11:49:58.321Z,988.73
2022-12-20T11:50:58.278Z,988.71
2022-12-20T11:51:58.299Z,988.65
2022-12-20T11:52:58.291Z,988.72
2022-12-20T11:53:58.298Z,988.74
2022-12-20T11:54:58.235Z,988.69
2022-12-20T11:55:58.221Z,988.59
2022-12-20T11:56:58.217Z,988.73
2022-12-20T11:58:21.332Z,988.71
2022-12-20T11:59:00.246Z,988.63
2022-12-20T11:59:58.184Z,988.74
2022-12-20T12:00:58.208Z,988.57
2022-12-20T12:01:58.324Z,988.57
2022-12-20T12:02:58.864Z,988.59
2022-12-20T12:03:59.176Z,988.70
2022-12-20T12:04:58.268Z,988.61
2022-12-20T12:05:58.141Z,988.61
2022-12-20T12:06:58.130Z,988.53
2022-12-20T12:07:58.125Z,988.51
2022-12-20T12:08:58.145Z,988.43
2022-12-20T12:09:58.099Z,988.40
2022-12-20T12:10:58.073Z,988.32
2022-12-20T12:12:07.759Z,988.35
2022-12-20T12:13:00.092Z,988.40
2022-12-20T12:13:58.022Z,988.36
2022-12-20T12:14:58.044Z,988.45
2022-12-20T12:15:58.031Z,988.43
2022-12-20T12:16:58.125Z,988.51
2022-12-20T12:17:57.990Z,988.50
2022-12-20T12:18:58.009Z,988.52
2022-12-20T12:19:57.995Z,988.39
2022-12-20T12:21:00.076Z,988.38
2022-12-20T12:21:57.977Z,988.34
2022-12-20T12:22:57.973Z,988.32
2022-12-20T12:23:57.934Z,988.40
2022-12-20T12:24:57.909Z,988.37
2022-12-20T12:25:57.960Z,988.42
2022-12-20T12:26:57.889Z,988.35
2022-12-20T12:27:57.909Z,988.28
2022-12-20T12:28:57.896Z,988.30